Time;durP1;ratioP1;P1;durP2;ratioP2;P2;SDS_P1;SDS_P2;PMS_P1;PMS_P2;Temp;Humidity;BMP_temperature;BMP_pressure;BME280_temperature;BME280_humidity;BME280_pressure;Samples;Min_cycle;Max_cycle;Signal;HPM_P1;HPM_P2
2022/08/28 00:01:53;;;;;;;5.30;3.08;;;16.80;99.90;;;15.99;100.00;101149.31;5121536;23;20013;-75
2022/08/28 00:03:54;;;;;;;3.22;2.13;;;16.70;99.90;;;16.19;100.00;101189.53;5098345;23;20061;-75
2022/08/28 00:05:55;;;;;;;3.15;2.15;;;16.70;99.90;;;15.96;100.00;101149.66;5097792;23;20002;-75
2022/08/28 00:07:59;;;;;;;4.80;2.17;;;16.70;99.90;;;16.13;100.00;101179.63;5096636;23;20006;-75
2022/08/28 00:10:00;;;;;;;;;;;16.70;99.90;;;15.92;100.00;101161.66;5097197;23;20009;-75
2022/08/28 00:12:02;;;;;;;3.47;1.80;;;16.70;99.90;;;15.86;100.00;101151.78;5098276;23;19908;-75
2022/08/28 00:14:09;;;;;;;5.03;2.20;;;16.60;99.90;;;15.97;100.00;101173.44;5098378;23;20009;-75
2022/08/28 00:16:10;;;;;;;4.85;2.13;;;16.60;99.90;;;15.90;100.00;101156.53;5096917;23;20025;-75
2022/08/28 00:18:11;;;;;;;5.65;2.20;;;16.60;99.90;;;15.85;100.00;101147.44;5096761;23;20005;-75
2022/08/28 00:20:17;;;;;;;3.00;2.00;;;16.60;99.90;;;15.81;100.00;101149.63;5097857;23;20006;-75
2022/08/28 00:22:18;;;;;;;4.45;2.10;;;16.50;99.90;;;15.80;100.00;101149.81;5121320;23;20005;-75
2022/08/28 00:24:19;;;;;;;5.18;1.77;;;16.50;99.90;;;15.78;100.00;101154.47;5072366;23;20466;-75
2022/08/28 00:28:40;;;;;;;3.60;2.25;;;16.50;99.90;;;15.73;100.00;101162.19;5098263;23;20016;-75
2022/08/28 00:30:49;;;;;;;4.35;2.10;;;16.40;99.90;;;15.81;100.00;101164.75;5096641;23;20009;-75
2022/08/28 00:32:52;;;;;;;5.40;2.25;;;16.40;99.90;;;15.66;100.00;101142.63;5096952;23;20005;-75
2022/08/28 00:34:53;;;;;;;3.90;2.30;;;16.40;99.90;;;15.63;100.00;101149.13;5098228;23;20009;-75
2022/08/28 00:36:54;;;;;;;7.80;2.83;;;16.30;99.90;;;15.58;100.00;101148.84;5099683;23;20465;-75
2022/08/28 00:38:58;;;;;;;3.25;1.90;;;16.30;99.90;;;15.70;100.00;101171.34;5099599;23;20005;-75
2022/08/28 00:41:02;;;;;;;3.58;2.60;;;16.30;99.90;;;15.70;100.00;101167.84;5098207;23;20016;-75
2022/08/28 00:43:05;;;;;;;3.78;2.08;;;16.30;99.90;;;15.78;100.00;101179.25;5097966;23;20009;-75
2022/08/28 00:45:07;;;;;;;4.10;2.43;;;16.30;99.90;;;15.55;100.00;101149.19;5099533;23;20017;-75
2022/08/28 00:47:08;;;;;;;6.28;2.08;;;16.30;99.90;;;15.50;100.00;101146.25;5099780;23;20009;-75
2022/08/28 00:49:13;;;;;;;4.97;2.00;;;16.30;99.90;;;15.56;100.00;101155.34;5073777;23;20010;-75
2022/08/28 00:53:36;;;;;;;7.50;2.30;;;16.20;99.90;;;15.51;100.00;101158.53;5098120;23;20017;-75
2022/08/28 00:55:37;;;;;;;6.72;2.42;;;16.20;99.90;;;15.54;100.00;101168.81;5099485;23;20002;-75
2022/08/28 00:57:48;;;;;;;3.80;2.25;;;16.20;99.90;;;15.52;100.00;101160.19;5099361;23;20006;-75
2022/08/28 00:59:49;;;;;;;4.50;2.10;;;16.20;99.90;;;15.65;100.00;101186.19;5098066;23;20001;-75
2022/08/28 01:01:55;;;;;;;3.05;1.90;;;16.20;99.90;;;15.41;100.00;101152.59;5099610;23;20048;-75
2022/08/28 01:03:56;;;;;;;4.72;2.10;;;16.20;99.90;;;15.54;100.00;101186.59;5097852;23;20033;-75
2022/08/28 01:05:57;;;;;;;4.22;2.60;;;16.10;99.90;;;15.52;100.00;101191.25;5099134;23;20002;-75
2022/08/28 01:08:00;;;;;;;6.78;2.40;;;16.10;99.90;;;15.47;100.00;101189.94;5097842;23;20009;-75
2022/08/28 01:10:01;;;;;;;4.10;2.20;;;16.10;99.90;;;15.34;100.00;101163.13;5073637;23;20053;-75
2022/08/28 01:12:13;;;;;;;4.32;2.08;;;16.10;99.90;;;15.44;100.00;101190.28;5097857;23;20001;-75
2022/08/28 01:14:18;;;;;;;6.53;2.60;;;16.10;99.90;;;15.43;100.00;101182.50;5097957;23;20394;-75
2022/08/28 01:16:21;;;;;;;3.50;2.03;;;16.00;99.90;;;15.25;100.00;101158.84;5098095;23;20005;-75
2022/08/28 01:18:24;;;;;;;3.45;2.08;;;16.00;99.90;;;15.41;100.00;101195.94;5097322;23;20089;-75
2022/08/28 01:20:29;;;;;;;3.72;2.28;;;16.00;99.90;;;15.21;100.00;101173.50;5097449;23;20446;-75
2022/08/28 01:22:52;;;;;;;3.53;2.58;;;15.90;99.90;;;15.28;100.00;101179.75;5122129;23;20074;-75
2022/08/28 01:24:57;;;;;;;6.20;2.33;;;15.90;99.90;;;15.27;100.00;101191.38;5097770;23;20016;-75
2022/08/28 01:26:58;;;;;;;6.00;2.40;;;15.90;99.90;;;15.14;100.00;101177.84;5097717;23;20006;-75
2022/08/28 01:29:00;;;;;;;4.13;2.25;;;15.90;99.90;;;15.09;100.00;101171.41;5099173;23;20057;-75
2022/08/28 01:31:01;;;;;;;3.08;2.00;;;15.80;99.90;;;15.13;100.00;101175.38;5097912;23;20466;-75
2022/08/28 01:33:03;;;;;;;4.50;2.42;;;15.80;99.90;;;15.16;100.00;101185.66;5097568;23;20036;-75
2022/08/28 01:35:09;;;;;;;3.28;2.10;;;15.80;99.90;;;15.09;100.00;101179.38;5098770;23;20012;-75
2022/08/28 01:37:10;;;;;;;3.50;2.35;;;15.80;99.90;;;15.10;100.00;101181.03;5099252;23;20005;-75
2022/08/28 01:39:17;;;;;;;4.53;2.17;;;15.70;99.90;;;15.09;100.00;101182.84;5097754;23;20010;-75
2022/08/28 01:41:18;;;;;;;4.15;2.65;;;15.70;99.90;;;15.07;100.00;101182.22;5098930;23;20010;-75
2022/08/28 01:43:24;;;;;;;4.63;2.53;;;15.70;99.90;;;15.12;100.00;101179.84;5099062;23;20137;-75
2022/08/28 01:45:26;;;;;;;5.53;2.15;;;15.70;99.90;;;15.15;100.00;101187.47;5098001;23;20032;-75
2022/08/28 01:47:26;;;;;;;4.72;2.60;;;15.80;99.90;;;15.07;100.00;101176.06;5097600;23;20373;-75
2022/08/28 01:49:28;;;;;;;4.97;2.42;;;15.70;99.90;;;15.03;100.00;101186.22;5097649;23;20036;-75
2022/08/28 01:51:29;;;;;;;5.03;2.22;;;15.70;99.90;;;15.02;100.00;101184.56;5121902;23;20005;-75
2022/08/28 01:53:31;;;;;;;3.45;2.10;;;15.70;99.90;;;14.95;100.00;101173.81;5097792;23;20006;-75
2022/08/28 01:55:34;;;;;;;5.10;2.90;;;15.70;99.90;;;14.95;100.00;101179.13;5097516;23;20029;-75
2022/08/28 01:57:48;;;;;;;3.63;1.83;;;15.70;99.90;;;15.14;100.00;101211.59;5097512;23;20409;-75
2022/08/28 01:59:50;;;;;;;3.42;2.05;;;15.70;99.90;;;14.99;100.00;101190.22;5098909;23;20012;-75
2022/08/28 02:01:53;;;;;;;4.00;2.00;;;15.70;99.90;;;14.91;100.00;101183.13;5097414;23;20036;-75
2022/08/28 02:03:55;;;;;;;4.50;2.38;;;15.60;99.90;;;14.79;100.00;101157.94;5073292;23;20017;-75
2022/08/28 02:05:56;;;;;;;3.90;2.58;;;15.50;99.90;;;14.76;100.00;101170.72;5098497;23;20422;-75
2022/08/28 02:07:59;;;;;;;4.07;2.58;;;15.50;99.90;;;14.92;100.00;101197.22;5098870;23;20001;-75
2022/08/28 02:10:01;;;;;;;7.25;2.50;;;15.50;99.90;;;14.76;100.00;101176.03;5097601;23;20040;-75
2022/08/28 02:12:03;;;;;;;4.78;2.90;;;15.50;99.90;;;14.79;100.00;101176.53;5098795;23;20001;-75
2022/08/28 02:14:05;;;;;;;3.85;2.20;;;15.50;99.90;;;14.94;100.00;101208.50;5122114;23;20020;-75
2022/08/28 02:16:08;;;;;;;2.80;2.08;;;15.50;99.90;;;14.87;100.00;101196.94;5097481;23;20064;-75
2022/08/28 02:18:10;;;;;;;3.45;2.33;;;15.50;99.90;;;14.73;100.00;101179.03;5097393;23;20110;-75
2022/08/28 02:20:11;;;;;;;4.65;2.15;;;15.40;99.90;;;14.72;100.00;101185.38;5098395;23;20013;-75
2022/08/28 02:22:12;;;;;;;4.68;2.20;;;15.40;99.90;;;14.69;100.00;101180.41;5098854;23;20060;-75
2022/08/28 02:24:15;;;;;;;2.97;1.92;;;15.40;99.90;;;14.72;100.00;101180.06;5072692;23;20010;-75
2022/08/28 02:26:18;;;;;;;3.53;2.10;;;15.40;99.90;;;14.57;100.00;101163.19;5098718;23;20066;-75
2022/08/28 02:28:18;;;;;;;4.75;2.30;;;15.40;99.90;;;14.73;100.00;101206.44;5099346;23;20076;-75
2022/08/28 02:30:20;;;;;;;5.20;2.17;;;15.30;99.90;;;14.56;100.00;101177.44;5098705;23;20338;-75
2022/08/28 02:32:21;;;;;;;4.93;2.15;;;15.30;99.90;;;14.50;100.00;101172.81;5098772;23;20485;-75
2022/08/28 02:34:22;;;;;;;5.75;2.30;;;15.20;99.90;;;14.55;100.00;101191.72;5098618;23;20048;-75
2022/08/28 02:36:23;;;;;;;3.63;2.67;;;15.20;99.90;;;14.42;100.00;101180.81;5098329;23;20010;-75
2022/08/28 02:38:24;;;;;;;3.20;1.90;;;15.20;99.90;;;14.37;100.00;101173.34;5098588;23;20012;-75
2022/08/28 02:40:25;;;;;;;3.17;2.40;;;15.10;99.90;;;14.42;100.00;101186.97;5098708;23;20005;-75
2022/08/28 02:42:27;;;;;;;4.95;2.60;;;15.10;99.90;;;14.29;100.00;101173.34;5097276;23;20061;-75
2022/08/28 02:44:28;;;;;;;5.97;2.72;;;15.10;99.90;;;14.30;100.00;101175.84;5121288;23;20005;-75
2022/08/28 02:46:29;;;;;;;5.47;2.47;;;15.00;99.90;;;14.36;100.00;101190.28;5098816;23;20418;-75
2022/08/28 02:48:34;;;;;;;4.18;2.55;;;15.00;99.90;;;14.36;100.00;101184.97;5098774;23;20477;-75
2022/08/28 02:50:35;;;;;;;4.68;2.67;;;15.00;99.90;;;14.47;100.00;101205.84;5098169;23;20001;-75
2022/08/28 02:52:36;;;;;;;5.57;2.67;;;15.10;99.90;;;14.33;100.00;101187.97;5097037;23;20032;-75
2022/08/28 02:54:39;;;;;;;6.60;2.95;;;15.00;99.90;;;14.29;100.00;101182.13;5098539;23;20040;-75
2022/08/28 02:56:40;;;;;;;3.10;2.35;;;15.00;99.90;;;14.23;100.00;101185.47;5096496;23;20009;-75
2022/08/28 02:58:41;;;;;;;5.32;2.45;;;15.00;99.90;;;14.23;100.00;101181.97;5072982;23;20021;-75
2022/08/28 03:00:42;;;;;;;3.78;2.08;;;15.00;99.90;;;14.24;100.00;101188.97;5098529;23;20013;-75
2022/08/28 03:02:45;;;;;;;7.68;2.70;;;15.00;99.90;;;14.19;100.00;101192.09;5097125;23;20091;-75
2022/08/28 03:04:47;;;;;;;5.65;2.85;;;14.90;99.90;;;14.22;100.00;101191.75;5098043;23;20341;-75
2022/08/28 03:06:49;;;;;;;4.03;2.35;;;14.90;99.90;;;14.13;100.00;101181.31;5098065;23;20033;-75
2022/08/28 03:08:50;;;;;;;3.95;2.90;;;14.90;99.90;;;14.33;100.00;101212.69;5098295;23;20018;-75
2022/08/28 03:10:51;;;;;;;3.30;2.85;;;14.90;99.90;;;14.18;100.00;101195.78;5098631;23;20029;-75
2022/08/28 03:12:52;;;;;;;4.68;2.60;;;14.90;99.90;;;14.17;100.00;101195.91;5098343;23;20005;-75
2022/08/28 03:18:50;;;;;;;5.93;3.05;;;14.80;99.90;;;14.08;100.00;101189.81;5105239;23;20337;-75
2022/08/28 03:20:54;;;;;;;4.63;2.70;;;14.80;99.90;;;14.07;100.00;101193.44;5122687;23;20015;-75
2022/08/28 03:25:16;;;;;;;4.10;2.72;;;14.70;99.90;;;14.06;100.00;101177.72;5100268;23;20020;-75
2022/08/28 03:27:17;;;;;;;3.75;2.38;;;14.70;99.90;;;14.02;100.00;101168.41;5122963;23;20433;-75
2022/08/28 03:29:18;;;;;;;5.45;2.67;;;14.70;99.90;;;14.14;100.00;101193.59;5122953;23;20072;-75
2022/08/28 03:31:24;;;;;;;3.58;2.40;;;14.70;99.90;;;14.10;100.00;101193.09;5122979;23;20055;-75
2022/08/28 03:33:25;;;;;;;6.32;3.25;;;14.70;99.90;;;13.98;100.00;101172.41;5096903;23;20343;-75
2022/08/28 03:35:26;;;;;;;14.05;3.03;;;14.70;99.90;;;13.93;100.00;101169.41;5096520;23;20012;-75
2022/08/28 03:37:30;;;;;;;7.38;3.10;;;14.70;99.90;;;13.83;100.00;101161.63;5122948;23;20009;-75
2022/08/28 03:39:31;;;;;;;3.72;2.97;;;14.70;99.90;;;14.06;100.00;101193.63;5073668;23;20017;-75
2022/08/28 03:41:33;;;;;;;4.15;2.88;;;14.60;99.90;;;13.94;100.00;101185.19;5123126;23;20016;-75
2022/08/28 03:43:34;;;;;;;3.60;2.63;;;14.60;99.90;;;13.85;100.00;101155.19;5096433;23;20006;-75
2022/08/28 03:45:36;;;;;;;5.15;2.78;;;14.60;99.90;;;13.95;100.00;101181.50;5122873;23;20400;-75
2022/08/28 03:47:39;;;;;;;4.97;2.90;;;14.70;99.90;;;14.02;100.00;101192.28;5121350;23;20123;-75
2022/08/28 03:49:40;;;;;;;4.70;3.08;;;14.60;99.90;;;14.13;100.00;101200.72;5096585;23;20012;-75
2022/08/28 03:51:41;;;;;;;6.38;3.20;;;14.70;99.90;;;14.04;100.00;101182.34;5121670;23;20009;-75
2022/08/28 03:53:42;;;;;;;3.70;3.05;;;14.70;99.90;;;14.07;100.00;101182.84;5096846;23;20013;-75
2022/08/28 03:55:43;;;;;;;3.53;2.78;;;14.70;99.90;;;13.94;100.00;101168.44;5122819;23;20333;-75
2022/08/28 03:57:44;;;;;;;4.40;2.90;;;14.70;99.90;;;13.98;100.00;101167.91;5122878;23;20032;-75
2022/08/28 03:59:50;;;;;;;4.47;2.65;;;14.70;99.90;;;13.99;100.00;101182.84;5122795;23;20027;-75
2022/08/28 04:01:51;;;;;;;4.90;2.97;;;14.70;99.90;;;14.04;100.00;101188.47;5122448;23;20009;-75
2022/08/28 04:03:52;;;;;;;4.40;3.38;;;14.70;99.90;;;14.03;100.00;101186.00;5096484;23;20501;-75
2022/08/28 04:05:53;;;;;;;3.88;3.03;;;14.70;99.90;;;14.06;100.00;101181.19;5122526;23;20060;-75
2022/08/28 04:07:54;;;;;;;8.70;3.38;;;14.70;99.90;;;14.14;100.00;101188.28;5097696;23;20438;-75
2022/08/28 04:09:55;;;;;;;3.30;2.72;;;14.80;99.90;;;14.11;100.00;101168.25;5098438;23;20434;-75
2022/08/28 04:11:56;;;;;;;4.28;2.60;;;14.80;99.90;;;14.09;100.00;101170.25;5124340;23;20001;-75
2022/08/28 04:13:57;;;;;;;5.53;3.03;;;14.80;99.90;;;14.31;100.00;101211.16;5124363;23;20441;-75
2022/08/28 04:16:02;;;;;;;4.32;2.92;;;14.90;99.90;;;14.13;100.00;101178.66;5124404;23;20012;-75
2022/08/28 04:18:03;;;;;;;5.28;3.05;;;14.80;99.90;;;14.29;100.00;101197.22;5098645;23;20009;-75
2022/08/28 04:20:07;;;;;;;5.43;3.30;;;14.90;99.90;;;14.15;100.00;101182.84;5097302;23;20021;-75
2022/08/28 04:22:08;;;;;;;5.18;2.92;;;14.90;99.90;;;14.15;100.00;101188.16;5124675;23;20009;-75
2022/08/28 04:24:09;;;;;;;3.67;2.70;;;14.90;99.90;;;14.09;100.00;101174.72;5098154;23;20012;-75
2022/08/28 04:26:19;;;;;;;3.75;2.70;;;14.90;99.90;;;14.16;100.00;101191.59;5098082;23;20361;-75
2022/08/28 04:28:22;;;;;;;4.13;3.00;;;14.80;99.90;;;14.02;100.00;101173.72;5098946;23;20409;-75
2022/08/28 04:30:23;;;;;;;5.50;2.70;;;14.80;99.90;;;14.02;100.00;101171.06;5122501;23;20425;-75
2022/08/28 04:32:24;;;;;;;5.55;2.58;;;14.80;99.90;;;14.12;100.00;101199.09;5124259;23;20001;-75
2022/08/28 04:34:25;;;;;;;5.75;3.03;;;14.80;99.90;;;14.17;100.00;101204.72;5124200;23;20009;-75
2022/08/28 04:36:26;;;;;;;6.68;3.45;;;14.70;99.90;;;14.06;100.00;101190.97;5123888;23;20398;-75
2022/08/28 04:38:27;;;;;;;3.35;2.60;;;14.70;99.90;;;14.06;100.00;101199.75;5098183;23;20006;-75
2022/08/28 04:40:28;;;;;;;6.05;3.05;;;14.70;99.90;;;14.15;100.00;101212.03;5124403;23;20012;-75
2022/08/28 04:42:29;;;;;;;5.05;3.10;;;14.70;99.90;;;13.98;100.00;101185.69;5124260;23;20015;-75
2022/08/28 04:44:31;;;;;;;5.18;3.13;;;14.70;99.90;;;14.09;100.00;101190.63;5122524;23;20009;-75
2022/08/28 04:46:32;;;;;;;6.93;4.30;;;14.70;99.90;;;14.03;100.00;101178.88;5097848;23;20028;-75
2022/08/28 04:48:34;;;;;;;5.28;3.65;;;14.80;99.90;;;14.02;100.00;101177.22;5124125;23;20024;-75
2022/08/28 04:50:43;;;;;;;5.20;3.10;;;14.80;99.90;;;14.10;100.00;101190.44;5097685;23;20001;-75
2022/08/28 04:52:45;;;;;;;5.90;3.42;;;14.80;99.90;;;14.13;100.00;101187.47;5098570;23;20002;-75
2022/08/28 04:54:45;;;;;;;4.10;2.92;;;14.80;99.90;;;14.16;100.00;101192.44;5124285;23;20009;-75
2022/08/28 04:56:46;;;;;;;3.35;2.97;;;14.90;99.90;;;14.18;100.00;101189.63;5097830;23;20097;-75
2022/08/28 04:58:48;;;;;;;5.68;2.95;;;14.90;99.90;;;14.10;100.00;101185.16;5124119;23;20431;-75
2022/08/28 05:00:50;;;;;;;5.57;3.20;;;14.90;99.90;;;14.27;100.00;101215.16;5124057;23;20027;-75
2022/08/28 05:02:51;;;;;;;3.88;2.85;;;14.90;99.90;;;14.07;100.00;101187.31;5123547;23;20005;-75
2022/08/28 05:04:52;;;;;;;7.38;3.05;;;14.80;99.90;;;14.18;100.00;101211.69;5097676;23;20017;-75
2022/08/28 05:06:53;;;;;;;6.82;2.70;;;14.80;99.90;;;14.15;100.00;101221.81;5123956;23;20002;-75
2022/08/28 05:08:57;;;;;;;4.45;2.90;;;14.80;99.90;;;14.11;100.00;101221.31;5123942;23;20005;-75
2022/08/28 05:11:09;;;;;;;;;;;14.80;99.90;;;13.89;100.00;101186.69;5098546;23;20333;-75
2022/08/28 05:13:14;;;;;;;4.55;2.92;;;14.70;99.90;;;13.92;100.00;101197.75;5097826;23;20255;-75
2022/08/28 05:15:15;;;;;;;5.13;2.92;;;14.70;99.90;;;14.11;100.00;101236.38;5073681;23;20037;-75
2022/08/28 05:17:16;;;;;;;6.60;3.60;;;14.70;99.90;;;14.02;100.00;101211.69;5098005;23;20036;-75
2022/08/28 05:19:18;;;;;;;5.10;2.70;;;14.70;99.90;;;13.96;100.00;101208.88;5123355;23;20013;-75
2022/08/28 05:21:21;;;;;;;4.75;2.92;;;14.70;99.90;;;13.93;100.00;101209.19;5123557;23;20092;-75
2022/08/28 05:23:23;;;;;;;7.35;3.20;;;14.70;99.90;;;13.99;100.00;101211.19;5097794;23;20001;-75
2022/08/28 05:25:24;;;;;;;6.03;2.95;;;14.70;99.90;;;13.92;100.00;101208.38;5123658;23;20027;-75
2022/08/28 05:27:25;;;;;;;2.90;2.58;;;14.70;99.90;;;13.92;100.00;101216.31;5123862;23;20001;-75
2022/08/28 05:29:26;;;;;;;7.30;3.50;;;14.70;99.90;;;13.99;100.00;101221.81;5123748;23;20001;-75
2022/08/28 05:31:29;;;;;;;6.75;3.15;;;14.70;99.90;;;13.99;100.00;101221.81;5124009;23;20001;-75
2022/08/28 05:33:30;;;;;;;5.63;3.00;;;14.70;99.90;;;13.99;100.00;101222.63;5097904;23;20006;-75
2022/08/28 05:35:41;;;;;;;7.03;3.05;;;14.70;99.90;;;14.05;100.00;101211.34;5123437;23;20089;-75
2022/08/28 05:37:42;;;;;;;4.30;2.95;;;14.80;99.90;;;14.17;100.00;101233.91;5123903;23;20012;-75
2022/08/28 05:39:43;;;;;;;7.45;2.90;;;14.70;99.90;;;14.19;100.00;101231.91;5123842;23;20005;-75
2022/08/28 05:41:45;;;;;;;7.28;2.88;;;14.70;99.90;;;14.18;100.00;101237.38;5123878;23;20005;-75
2022/08/28 05:43:47;;;;;;;4.60;2.70;;;14.80;99.90;;;14.14;100.00;101217.47;5123632;23;20009;-75
2022/08/28 05:45:57;;;;;;;5.63;2.95;;;14.80;99.90;;;14.19;100.00;101221.28;5097726;23;20425;-75
2022/08/28 05:47:58;;;;;;;4.78;3.08;;;14.90;99.90;;;14.21;100.00;101231.75;5097552;23;20013;-75
2022/08/28 05:49:59;;;;;;;3.88;2.78;;;14.90;99.90;;;14.28;100.00;101238.84;5123511;23;20001;-75
2022/08/28 05:52:00;;;;;;;4.70;2.80;;;15.00;99.90;;;14.21;100.00;101221.97;5123797;23;20437;-75
2022/08/28 05:54:02;;;;;;;8.80;3.00;;;15.00;99.90;;;14.32;100.00;101239.34;5097235;23;20347;-75
2022/08/28 05:56:18;;;;;;;;;;;;;;;;;;;;;
2022/08/28 05:58:28;;;;;;;4.38;2.60;;;15.10;99.90;;;14.40;100.00;101237.53;5123821;23;20007;-75
2022/08/28 06:00:29;;;;;;;4.43;2.70;;;15.10;99.90;;;14.50;100.00;101247.97;5123684;23;20005;-75
2022/08/28 06:02:30;;;;;;;4.15;2.40;;;15.20;99.90;;;14.49;100.00;101240.19;5097421;23;20461;-75
2022/08/28 06:04:31;;;;;;;3.08;2.30;;;15.20;99.90;;;14.47;100.00;101234.22;5123128;23;20069;-75
2022/08/28 06:06:37;;;;;;;5.03;2.67;;;15.30;99.90;;;14.65;100.00;101258.75;5097524;23;20092;-75
2022/08/28 06:08:39;;;;;;;5.55;3.20;;;15.30;99.90;;;14.54;100.00;101232.56;5123543;23;20005;-75
2022/08/28 06:10:43;;;;;;;5.68;3.03;;;15.30;99.90;;;14.73;100.00;101258.72;5097445;23;20080;-76
2022/08/28 06:12:44;;;;;;;3.85;2.35;;;15.40;99.90;;;14.74;100.00;101249.75;5097227;23;20060;-75
2022/08/28 06:14:45;;;;;;;7.50;3.08;;;15.40;99.90;;;14.82;100.00;101265.66;5097250;23;20049;-75
2022/08/28 06:16:51;;;;;;;5.22;2.40;;;15.40;99.90;;;14.82;100.00;101242.59;5123044;23;20471;-75
2022/08/28 06:18:52;;;;;;;4.85;2.60;;;15.50;99.90;;;14.87;100.00;101253.50;5097540;23;20021;-75
2022/08/28 06:20:53;;;;;;;5.80;3.33;;;15.60;99.90;;;15.08;100.00;101279.53;5097072;23;20338;-75
2022/08/28 06:22:54;;;;;;;3.13;2.60;;;15.60;99.90;;;15.03;100.00;101259.78;5123357;23;20012;-75
2022/08/28 06:24:55;;;;;;;4.25;2.63;;;15.70;99.90;;;15.02;100.00;101252.81;5123168;23;20377;-75
2022/08/28 06:26:58;;;;;;;6.40;2.65;;;15.70;99.90;;;15.18;100.00;101261.53;5097464;23;20005;-75
2022/08/28 06:29:09;;;;;;;7.63;3.17;;;15.80;99.90;;;15.10;100.00;101240.31;5097178;23;20486;-75
2022/08/28 06:31:10;;;;;;;6.15;2.72;;;15.90;99.90;;;15.25;100.00;101253.69;5122950;23;20052;-75
2022/08/28 06:33:15;;;;;;;4.15;2.65;;;15.90;99.90;;;15.31;100.00;101253.84;5097336;23;20029;-75
2022/08/28 06:35:16;;;;;;;3.03;2.33;;;16.00;99.90;;;15.44;100.00;101263.91;5123013;23;20008;-75
2022/08/28 06:37:17;;;;;;;3.72;2.45;;;16.10;99.90;;;15.54;100.00;101269.00;5123201;23;20342;-75
2022/08/28 06:39:18;;;;;;;8.95;2.72;;;16.10;99.90;;;15.52;100.00;101241.78;5097624;23;20006;-74
2022/08/28 06:41:19;;;;;;;3.03;2.17;;;16.20;99.90;;;15.66;100.00;101264.97;5122876;23;20012;-75
2022/08/28 06:43:27;;;;;;;5.88;2.92;;;16.30;99.90;;;15.71;100.00;101265.28;5123241;23;20037;-75
2022/08/28 06:45:30;;;;;;;5.05;2.85;;;16.30;99.90;;;15.67;100.00;101248.00;5097675;23;20014;-75
2022/08/28 06:47:34;;;;;;;5.03;2.17;;;16.40;99.90;;;15.90;100.00;101291.41;5096693;23;20005;-75
2022/08/28 06:49:35;;;;;;;6.70;2.58;;;16.50;99.90;;;15.79;100.00;101262.56;5122847;23;20012;-75
2022/08/28 06:51:36;;;;;;;4.07;2.47;;;16.50;99.90;;;15.85;100.00;101264.50;5123228;23;20345;-75
2022/08/28 06:53:40;;;;;;;6.10;2.70;;;16.50;99.90;;;15.84;100.00;101268.16;5097090;23;20002;-75
2022/08/28 06:55:41;;;;;;;3.53;2.38;;;16.60;99.90;;;16.00;100.00;101284.03;5072671;23;20005;-75
2022/08/28 06:57:42;;;;;;;3.33;2.60;;;16.70;99.90;;;15.94;100.00;101274.09;5097009;23;20017;-75
2022/08/28 06:59:43;;;;;;;3.58;1.90;;;16.70;99.90;;;16.03;100.00;101276.50;5123123;23;20013;-74
2022/08/28 07:01:44;;;;;;;3.58;2.03;;;16.80;99.90;;;16.18;100.00;101287.19;5123309;23;20111;-74
2022/08/28 07:03:45;;;;;;;3.92;2.42;;;16.80;99.90;;;16.20;100.00;101285.19;5123040;23;20386;-74
2022/08/28 07:05:46;;;;;;;6.63;2.70;;;16.90;99.90;;;16.41;100.00;101306.63;5122671;23;20005;-75
2022/08/28 07:07:47;;;;;;;5.00;2.35;;;17.00;99.90;;;16.31;100.00;101284.75;5096777;23;20040;-75
2022/08/28 07:09:49;;;;;;;3.95;2.35;;;17.00;99.90;;;16.39;100.00;101286.53;5123052;23;20008;-75
2022/08/28 07:11:50;;;;;;;4.78;2.10;;;17.10;99.90;;;16.39;100.00;101275.88;5097056;23;20029;-75
2022/08/28 07:13:52;;;;;;;2.95;1.65;;;17.10;99.90;;;16.51;100.00;101280.56;5123006;23;20421;-75
2022/08/28 07:15:53;;;;;;;3.03;1.63;;;17.20;99.90;;;16.59;100.00;101299.16;5122285;23;20008;-75
2022/08/28 07:17:54;;;;;;;7.40;2.80;;;17.20;99.90;;;16.59;100.00;101283.19;5121411;23;20064;-75
2022/08/28 07:19:55;;;;;;;4.68;2.15;;;17.30;99.90;;;16.79;100.00;101301.28;5122111;23;20013;-75
2022/08/28 07:21:56;;;;;;;2.78;2.03;;;17.40;99.90;;;16.88;100.00;101302.84;5096691;23;20006;-75
2022/08/28 07:23:57;;;;;;;3.97;2.17;;;17.50;99.90;;;16.92;100.00;101291.66;5122792;23;20001;-75
2022/08/28 07:26:02;;;;;;;3.35;2.53;;;17.60;99.90;;;17.03;98.00;101285.03;5122888;23;20072;-75
2022/08/28 07:28:03;;;;;;;4.05;2.63;;;17.70;99.90;;;17.16;95.91;101293.22;5073039;23;20049;-75
2022/08/28 07:30:07;;;;;;;2.95;2.00;;;17.80;99.90;;;17.17;95.13;101265.56;5122874;23;20008;-75
2022/08/28 07:32:08;;;;;;;7.05;1.92;;;17.90;99.90;;;17.37;93.45;101279.94;5123004;23;20029;-75
2022/08/28 07:34:11;;;;;;;6.20;2.03;;;18.10;99.90;;;17.54;93.15;101286.72;5097039;23;20017;-74
2022/08/28 07:36:18;;;;;;;4.35;1.70;;;18.20;99.90;;;17.69;93.02;101292.03;5121188;23;20009;-75
2022/08/28 07:38:19;;;;;;;8.68;2.13;;;18.40;99.90;;;17.69;91.77;101281.34;5097267;23;20009;-75
2022/08/28 07:40:21;;;;;;;4.00;1.85;;;18.50;99.90;;;17.87;90.75;101281.75;5096855;23;20010;-75
2022/08/28 07:44:50;;;;;;;2.55;1.70;;;18.70;99.90;;;18.11;87.38;101275.19;5124288;23;20019;-75
2022/08/28 07:46:57;;;;;;;3.92;1.85;;;18.80;99.90;;;18.22;86.08;101278.16;5124773;23;20080;-75
2022/08/28 07:49:18;;;;;;;;;;;;;;;;;;;;;
2022/08/28 07:51:29;;;;;;;;;;;;;;;;;;;;;
2022/08/28 07:53:31;;;;;;;6.30;1.77;;;19.20;99.90;;;18.56;85.83;101284.63;5124443;23;20441;-76
2022/08/28 07:55:34;;;;;;;3.67;1.80;;;19.30;99.90;;;18.62;86.05;101276.66;5098520;23;20016;-75
2022/08/28 07:57:45;;;;;;;5.47;1.70;;;19.30;99.90;;;18.58;84.98;101270.03;5098229;23;20467;-76
2022/08/28 07:59:52;;;;;;;4.45;1.60;;;19.40;99.90;;;18.61;84.20;101275.00;5124941;23;20436;-76
2022/08/28 08:02:06;;;;;;;;;;;;;;;;;;;;;
2022/08/28 08:04:11;;;;;;;3.38;1.33;;;19.40;99.90;;;18.69;82.50;101274.88;5124412;23;20001;-76
2022/08/28 08:06:15;;;;;;;5.07;1.60;;;19.40;99.90;;;18.79;83.04;101280.66;5098484;23;20012;-76
2022/08/28 08:08:16;;;;;;;2.63;1.70;;;19.50;99.90;;;18.81;83.34;101287.69;5072905;23;20063;-76
2022/08/28 08:10:21;;;;;;;3.58;1.40;;;19.50;99.90;;;18.82;82.46;101273.31;5124304;23;20192;-76
2022/08/28 08:12:35;;;;;;;;;;;;;;;;;;;;;
2022/08/28 08:14:49;;;;;;;;;;;;;;;;;;;;;
2022/08/28 08:17:00;;;;;;;2.72;1.80;;;19.60;99.90;;;19.02;82.59;101290.28;5100780;23;20006;-76
2022/08/28 08:19:04;;;;;;;2.65;1.38;;;19.70;99.90;;;19.14;83.04;101280.66;5122532;23;20023;-76
2022/08/28 08:21:33;;;;;;;;;;;;;;;;;;;;;
2022/08/28 08:23:43;;;;;;;4.82;1.60;;;19.90;99.90;;;19.32;81.45;101291.66;5124364;23;20000;-76
2022/08/28 08:26:15;;;;;;;;;;;;;;;;;;;;;
2022/08/28 08:28:16;;;;;;;4.93;2.10;;;20.10;99.90;;;19.46;79.13;101277.31;5124407;23;20019;-76
2022/08/28 08:30:24;;;;;;;3.40;1.65;;;20.20;99.90;;;19.51;79.99;101290.91;5124748;23;20009;-76
2022/08/28 08:32:25;;;;;;;4.65;1.70;;;20.30;99.90;;;19.66;79.65;101293.44;5122682;23;20084;-76
2022/08/28 08:34:27;;;;;;;3.33;1.60;;;20.40;99.90;;;19.74;77.73;101293.25;5097642;23;20068;-76
2022/08/28 08:36:30;;;;;;;3.90;1.55;;;20.50;99.90;;;19.82;77.14;101298.44;5098156;23;20098;-76
2022/08/28 08:38:35;;;;;;;4.40;1.97;;;20.50;99.90;;;19.85;75.63;101308.72;5122673;23;20005;-75
2022/08/28 08:40:35;;;;;;;2.53;1.60;;;20.60;99.90;;;19.90;76.58;101295.53;5098236;23;20088;-76
2022/08/28 08:42:54;;;;;;;;;;;;;;;;;;;;;
2022/08/28 08:45:01;;;;;;;3.45;1.67;;;20.80;99.90;;;20.16;75.45;101294.78;5101328;23;20012;-76
2022/08/28 08:47:14;;;;;;;3.25;1.55;;;21.00;99.90;;;20.33;74.79;101288.00;5124104;23;20381;-76
2022/08/28 08:49:34;;;;;;;;;;;;;;;;;;;;;
2022/08/28 08:52:02;;;;;;;3.67;1.70;;;21.20;99.90;;;20.65;77.39;101299.72;5101458;23;20005;-76
2022/08/28 08:54:27;;;;;;;3.15;1.50;;;21.30;99.90;;;20.72;72.53;101306.75;5100980;23;20412;-76
2022/08/28 08:56:39;;;;;;;;;;;;;;;;;;;;;
2022/08/28 08:59:04;;;;;;;;;;;;;;;;;;;;;